»·PEaware :: N2907G KFLG-KPHX

N2907G :: KFLG-KPHX

FLIGHT INFORMATION

Flight Status: Arrived
Operator: Privately registered:
United States
More flights under this callsign
Pilot: Thomas D. (10387)
Aircraft: Unknown
(B60T)
More flights by this aircraft type
Origin: KFLG Flagstaff Pulliam
United States
Destination: KPHX Phoenix Sky Harbor Intl
United States
More flights between these airports :: More routes between these airports
Route: VFR
File this flight plan on PilotEdge
Remarks:
Altitude:
(Current/Filed)
10,500ft
Speed:
(Current/Filed)
210kts
Departed: 09-Oct-17 12:35 PM
Arrived: 09-Oct-17 01:17 PM
Distance/Time
Traveled:
104nm/0:42
Distance/Time
To Go:
Arrived

Flight Plot

Page will automatically refresh every two minutes.

Flight plan parsing failed; only flown route is shown


Map Options




Map Legend


Flown Route
Filed Route
Departure Airport
Arrival Airport
Navaid (VOR, NDB)
Fix

Horizontal Profiles

Position Reports

Time Latitude Longitude Heading Altitude Ground
Speed
09-Oct-17 12:07 35.137230 -111.675191 40 7016ft 0kts
09-Oct-17 12:08 35.135803 -111.676483 40 7014ft 13kts
09-Oct-17 12:09 35.135416 -111.677134 40 7014ft 0kts
09-Oct-17 12:10 35.135417 -111.677244 220 7014ft 0kts
09-Oct-17 12:11 35.135387 -111.677270 220 7014ft 0kts
09-Oct-17 12:12 35.135387 -111.677270 220 7014ft 0kts
09-Oct-17 12:13 35.135387 -111.677270 220 7014ft 0kts
09-Oct-17 12:14 35.135386 -111.677271 220 7014ft 0kts
09-Oct-17 12:15 35.135386 -111.677271 220 7014ft 0kts
09-Oct-17 12:16 35.135386 -111.677271 220 7014ft 0kts
09-Oct-17 12:17 35.135386 -111.677271 220 7014ft 0kts
09-Oct-17 12:18 35.135386 -111.677271 220 7014ft 0kts
09-Oct-17 12:19 35.135386 -111.677271 220 7014ft 0kts
09-Oct-17 12:20 35.135386 -111.677271 220 7014ft 0kts
09-Oct-17 12:21 35.135386 -111.677271 220 7014ft 0kts
09-Oct-17 12:22 35.135386 -111.677271 220 7014ft 0kts
09-Oct-17 12:23 35.135386 -111.677271 220 7014ft 0kts
09-Oct-17 12:24 35.135386 -111.677271 220 7014ft 0kts
09-Oct-17 12:25 35.135386 -111.677271 220 7014ft 0kts
09-Oct-17 12:26 35.135386 -111.677271 220 7014ft 0kts
09-Oct-17 12:27 35.135328 -111.677339 225 7014ft 0kts
09-Oct-17 12:28 35.135327 -111.677340 225 7014ft 0kts
09-Oct-17 12:29 35.135325 -111.677342 225 7014ft 0kts
09-Oct-17 12:30 35.135324 -111.677344 225 7014ft 0kts
09-Oct-17 12:31 35.135323 -111.677346 225 7014ft 0kts
09-Oct-17 12:32 35.135321 -111.677347 225 7014ft 0kts
09-Oct-17 12:33 35.135245 -111.677426 200 7014ft 3kts
09-Oct-17 12:34 35.134608 -111.676970 226 7014ft 5kts
09-Oct-17 12:35 35.132779 -111.678920 220 7014ft 11kts
09-Oct-17 12:36 35.131880 -111.679586 133 7014ft 0kts
09-Oct-17 12:37 35.131845 -111.679541 133 7014ft 2kts
09-Oct-17 12:38 35.131397 -111.678706 54 7014ft 0kts
09-Oct-17 12:39 35.145996 -111.662572 46 7386ft 146kts
09-Oct-17 12:40 35.150937 -111.617453 120 8408ft 150kts
09-Oct-17 12:41 35.112224 -111.622784 213 8441ft 167kts
09-Oct-17 12:42 35.076427 -111.655075 215 9398ft 152kts
09-Oct-17 12:43 35.039613 -111.641733 130 10728ft 182kts
09-Oct-17 12:44 35.003618 -111.585383 119 10713ft 220kts
09-Oct-17 12:45 34.969188 -111.521367 150 10468ft 237kts
09-Oct-17 12:46 34.906793 -111.525872 194 10511ft 231kts
09-Oct-17 12:47 34.843736 -111.540467 188 10565ft 234kts
09-Oct-17 12:48 34.780916 -111.536037 168 11393ft 206kts
09-Oct-17 12:49 34.725669 -111.536913 213 12508ft 193kts
09-Oct-17 12:50 34.676419 -111.567058 211 13557ft 200kts
09-Oct-17 12:51 34.622463 -111.590635 206 14499ft 210kts
09-Oct-17 12:52 34.561800 -111.612656 199 14541ft 239kts
09-Oct-17 12:53 34.495580 -111.626593 198 14498ft 241kts
09-Oct-17 12:54 34.430985 -111.645113 199 14464ft 238kts
09-Oct-17 12:55 34.365842 -111.661836 197 14397ft 238kts
09-Oct-17 12:56 34.300580 -111.676146 195 14348ft 238kts
09-Oct-17 12:57 34.235063 -111.688339 194 14314ft 239kts
09-Oct-17 12:59 34.169760 -111.702859 200 13877ft 232kts
09-Oct-17 13:00 34.107967 -111.724251 203 13098ft 227kts
09-Oct-17 13:01 34.047986 -111.746895 202 12452ft 224kts
09-Oct-17 13:02 33.990656 -111.768311 204 12333ft 208kts
09-Oct-17 13:03 33.937196 -111.788839 203 12481ft 199kts
09-Oct-17 13:04 33.882364 -111.806942 199 12402ft 203kts
09-Oct-17 13:05 33.829280 -111.828061 209 12413ft 198kts
09-Oct-17 13:06 33.779664 -111.857667 215 12332ft 197kts
09-Oct-17 13:07 33.739281 -111.891240 229 12168ft 192kts
09-Oct-17 13:08 33.703313 -111.931917 230 12328ft 170kts
09-Oct-17 13:09 33.665091 -111.977093 229 11000ft 206kts
09-Oct-17 13:10 33.625625 -112.028420 229 9637ft 213kts
09-Oct-17 13:11 33.586282 -112.083967 230 8274ft 221kts
09-Oct-17 13:12 33.548178 -112.138727 230 6950ft 206kts
09-Oct-17 13:13 33.512437 -112.189808 230 5749ft 195kts
09-Oct-17 13:14 33.477209 -112.237035 207 4707ft 184kts
09-Oct-17 13:15 33.429589 -112.239518 138 3727ft 167kts
09-Oct-17 13:16 33.427246 -112.193494 79 3011ft 124kts
09-Oct-17 13:17 33.427456 -112.153150 85 2976ft 112kts
09-Oct-17 13:18 33.427075 -112.119931 84 2602ft 91kts
09-Oct-17 13:19 33.427700 -112.089264 82 2269ft 93kts
09-Oct-17 13:20 33.428580 -112.057627 84 1606ft 94kts
09-Oct-17 13:20 33.428769 -112.031754 89 1261ft 95kts
09-Oct-17 13:21 33.428828 -112.008766 90 1138ft 19kts
09-Oct-17 13:23 33.427970 -112.006327 190 1138ft 0kts
09-Oct-17 13:24 33.427744 -112.007930 271 1138ft 12kts
09-Oct-17 13:24 33.427741 -112.011447 269 1138ft 12kts
09-Oct-17 13:26 33.426596 -112.014291 254 1138ft 7kts
09-Oct-17 13:26 33.426777 -112.016589 267 1138ft 10kts
09-Oct-17 13:27 33.426078 -112.016646 105 1138ft 1kts

Navigation Log

Ident Type
Flight plan parsing failed, navigation log unavailable